sensor_id;sensor_type;location;lat;lon;timestamp;pressure;altitude;pressure_sealevel;temperature;humidity
84051;BME280;74137;50.136;19.040;2024-03-23T00:55:58;98216.70;;;9.06;68.35
84051;BME280;74137;50.136;19.040;2024-03-23T00:58:25;98216.31;;;9.07;68.46
84051;BME280;74137;50.136;19.040;2024-03-23T01:00:52;98216.80;;;9.07;68.40
84051;BME280;74137;50.136;19.040;2024-03-23T01:03:19;98212.50;;;9.06;68.57
84051;BME280;74137;50.136;19.040;2024-03-23T01:05:46;98210.05;;;9.06;68.33
84051;BME280;74137;50.136;19.040;2024-03-23T01:08:13;98206.93;;;9.06;68.47
84051;BME280;74137;50.136;19.040;2024-03-23T01:10:40;98202.67;;;9.07;68.60
84051;BME280;74137;50.136;19.040;2024-03-23T01:13:07;98196.19;;;9.07;68.54
84051;BME280;74137;50.136;19.040;2024-03-23T01:15:34;98198.33;;;9.06;68.71
84051;BME280;74137;50.136;19.040;2024-03-23T01:18:01;98189.33;;;9.05;68.62
84051;BME280;74137;50.136;19.040;2024-03-23T01:20:28;98191.77;;;9.02;68.55
84051;BME280;74137;50.136;19.040;2024-03-23T01:22:55;98186.71;;;8.98;68.60
84051;BME280;74137;50.136;19.040;2024-03-23T01:25:24;98183.30;;;8.97;68.72
84051;BME280;74137;50.136;19.040;2024-03-23T01:27:51;98180.58;;;8.96;68.75
84051;BME280;74137;50.136;19.040;2024-03-23T01:30:18;98177.23;;;8.93;68.46
84051;BME280;74137;50.136;19.040;2024-03-23T01:32:44;98181.02;;;8.91;68.59
84051;BME280;74137;50.136;19.040;2024-03-23T01:35:14;98174.16;;;8.89;68.67
84051;BME280;74137;50.136;19.040;2024-03-23T01:37:40;98172.36;;;8.87;68.70
84051;BME280;74137;50.136;19.040;2024-03-23T01:40:10;98169.67;;;8.85;68.61
84051;BME280;74137;50.136;19.040;2024-03-23T01:42:39;98167.17;;;8.83;68.65
84051;BME280;74137;50.136;19.040;2024-03-23T01:45:07;98167.95;;;8.79;68.64
84051;BME280;74137;50.136;19.040;2024-03-23T01:47:35;98161.98;;;8.76;68.61
84051;BME280;74137;50.136;19.040;2024-03-23T01:50:02;98164.05;;;8.73;68.64
84051;BME280;74137;50.136;19.040;2024-03-23T01:52:30;98164.78;;;8.73;68.95
84051;BME280;74137;50.136;19.040;2024-03-23T01:54:57;98161.11;;;8.73;69.16
84051;BME280;74137;50.136;19.040;2024-03-23T01:57:24;98162.17;;;8.73;69.51
84051;BME280;74137;50.136;19.040;2024-03-23T01:59:51;98159.81;;;8.71;69.02
84051;BME280;74137;50.136;19.040;2024-03-23T02:02:22;98155.55;;;8.69;69.40
84051;BME280;74137;50.136;19.040;2024-03-23T02:04:49;98154.66;;;8.70;69.41
84051;BME280;74137;50.136;19.040;2024-03-23T02:07:16;98155.61;;;8.68;69.54
84051;BME280;74137;50.136;19.040;2024-03-23T02:09:43;98150.27;;;8.67;69.21
84051;BME280;74137;50.136;19.040;2024-03-23T02:12:11;98150.25;;;8.67;69.07
84051;BME280;74137;50.136;19.040;2024-03-23T02:14:38;98142.90;;;8.67;69.16
84051;BME280;74137;50.136;19.040;2024-03-23T02:17:04;98140.41;;;8.68;69.36
84051;BME280;74137;50.136;19.040;2024-03-23T02:19:31;98134.20;;;8.69;69.28
84051;BME280;74137;50.136;19.040;2024-03-23T02:21:58;98135.70;;;8.68;69.39
84051;BME280;74137;50.136;19.040;2024-03-23T02:24:25;98128.09;;;8.66;69.38
84051;BME280;74137;50.136;19.040;2024-03-23T02:26:53;98126.66;;;8.67;69.34
84051;BME280;74137;50.136;19.040;2024-03-23T02:29:20;98123.82;;;8.68;69.73
84051;BME280;74137;50.136;19.040;2024-03-23T02:31:47;98125.39;;;8.68;69.61
84051;BME280;74137;50.136;19.040;2024-03-23T02:34:14;98123.86;;;8.67;69.82
84051;BME280;74137;50.136;19.040;2024-03-23T02:36:41;98120.95;;;8.66;69.69
84051;BME280;74137;50.136;19.040;2024-03-23T02:39:07;98120.09;;;8.66;69.68
84051;BME280;74137;50.136;19.040;2024-03-23T02:41:34;98108.34;;;8.66;69.20
84051;BME280;74137;50.136;19.040;2024-03-23T02:44:01;98102.40;;;8.68;68.65
84051;BME280;74137;50.136;19.040;2024-03-23T02:46:28;98104.45;;;8.72;68.22
84051;BME280;74137;50.136;19.040;2024-03-23T02:48:55;98108.60;;;8.76;68.10
84051;BME280;74137;50.136;19.040;2024-03-23T02:51:23;98112.38;;;8.80;68.12
84051;BME280;74137;50.136;19.040;2024-03-23T02:53:50;98104.85;;;8.83;67.61
84051;BME280;74137;50.136;19.040;2024-03-23T02:56:17;98102.27;;;8.88;67.45
84051;BME280;74137;50.136;19.040;2024-03-23T02:58:44;98092.05;;;8.92;67.30
84051;BME280;74137;50.136;19.040;2024-03-23T03:01:11;98084.95;;;8.96;67.17
84051;BME280;74137;50.136;19.040;2024-03-23T03:03:38;98077.13;;;9.01;66.88
84051;BME280;74137;50.136;19.040;2024-03-23T03:06:05;98077.76;;;9.05;66.65
84051;BME280;74137;50.136;19.040;2024-03-23T03:08:32;98076.33;;;9.08;66.56
84051;BME280;74137;50.136;19.040;2024-03-23T03:10:59;98079.64;;;9.11;66.41
84051;BME280;74137;50.136;19.040;2024-03-23T03:13:28;98075.69;;;9.13;66.18
84051;BME280;74137;50.136;19.040;2024-03-23T03:15:55;98076.55;;;9.15;66.09
84051;BME280;74137;50.136;19.040;2024-03-23T03:18:22;98077.41;;;9.19;65.81
84051;BME280;74137;50.136;19.040;2024-03-23T03:20:49;98071.30;;;9.22;65.68
84051;BME280;74137;50.136;19.040;2024-03-23T03:23:16;98068.19;;;9.24;65.74
84051;BME280;74137;50.136;19.040;2024-03-23T03:25:44;98067.73;;;9.25;65.45
84051;BME280;74137;50.136;19.040;2024-03-23T03:28:11;98056.55;;;9.27;65.45
84051;BME280;74137;50.136;19.040;2024-03-23T03:30:38;98046.98;;;9.29;65.67
84051;BME280;74137;50.136;19.040;2024-03-23T03:33:05;98054.82;;;9.30;65.97
84051;BME280;74137;50.136;19.040;2024-03-23T03:35:32;98052.07;;;9.29;66.20
84051;BME280;74137;50.136;19.040;2024-03-23T03:37:59;98051.25;;;9.28;66.52
84051;BME280;74137;50.136;19.040;2024-03-23T03:40:26;98047.30;;;9.27;66.64
84051;BME280;74137;50.136;19.040;2024-03-23T03:42:52;98050.70;;;9.26;66.81
84051;BME280;74137;50.136;19.040;2024-03-23T03:45:19;98054.70;;;9.24;66.91
84051;BME280;74137;50.136;19.040;2024-03-23T03:47:46;98061.69;;;9.21;67.13
84051;BME280;74137;50.136;19.040;2024-03-23T03:50:13;98058.77;;;9.17;67.37
84051;BME280;74137;50.136;19.040;2024-03-23T03:52:40;98054.77;;;9.14;67.60
84051;BME280;74137;50.136;19.040;2024-03-23T03:55:13;98055.17;;;9.11;67.82
84051;BME280;74137;50.136;19.040;2024-03-23T03:57:40;98052.05;;;9.07;68.02
84051;BME280;74137;50.136;19.040;2024-03-23T04:00:08;98050.95;;;9.05;68.24
84051;BME280;74137;50.136;19.040;2024-03-23T04:02:38;98052.66;;;9.03;68.71
84051;BME280;74137;50.136;19.040;2024-03-23T04:05:05;98048.15;;;9.00;69.12
84051;BME280;74137;50.136;19.040;2024-03-23T04:07:32;98046.29;;;8.95;69.07
84051;BME280;74137;50.136;19.040;2024-03-23T04:09:59;98037.39;;;8.92;68.98
84051;BME280;74137;50.136;19.040;2024-03-23T04:12:26;98035.55;;;8.89;69.26
84051;BME280;74137;50.136;19.040;2024-03-23T04:14:53;98037.19;;;8.85;69.29
84051;BME280;74137;50.136;19.040;2024-03-23T04:17:20;98036.98;;;8.82;69.34
84051;BME280;74137;50.136;19.040;2024-03-23T04:19:47;98036.02;;;8.78;69.68
84051;BME280;74137;50.136;19.040;2024-03-23T04:22:15;98032.40;;;8.74;69.95
84051;BME280;74137;50.136;19.040;2024-03-23T04:24:43;98029.76;;;8.72;69.83
84051;BME280;74137;50.136;19.040;2024-03-23T04:27:10;98025.35;;;8.70;70.07
84051;BME280;74137;50.136;19.040;2024-03-23T04:29:37;98021.36;;;8.66;70.60
84051;BME280;74137;50.136;19.040;2024-03-23T04:32:04;98017.83;;;8.61;70.53
84051;BME280;74137;50.136;19.040;2024-03-23T04:34:31;98010.59;;;8.56;70.80
84051;BME280;74137;50.136;19.040;2024-03-23T04:36:59;98004.63;;;8.54;70.89
84051;BME280;74137;50.136;19.040;2024-03-23T04:39:26;98001.50;;;8.50;71.23
84051;BME280;74137;50.136;19.040;2024-03-23T04:41:53;97997.52;;;8.50;71.16
84051;BME280;74137;50.136;19.040;2024-03-23T04:44:20;97996.25;;;8.51;71.27
84051;BME280;74137;50.136;19.040;2024-03-23T04:46:47;97984.48;;;8.52;71.48
84051;BME280;74137;50.136;19.040;2024-03-23T04:49:14;97974.91;;;8.51;71.36
84051;BME280;74137;50.136;19.040;2024-03-23T04:51:43;97966.90;;;8.50;71.43
84051;BME280;74137;50.136;19.040;2024-03-23T04:54:16;97972.69;;;8.52;71.76
84051;BME280;74137;50.136;19.040;2024-03-23T04:56:43;97972.65;;;8.53;71.89
84051;BME280;74137;50.136;19.040;2024-03-23T04:59:09;97972.61;;;8.54;71.91
84051;BME280;74137;50.136;19.040;2024-03-23T05:01:36;97971.95;;;8.53;71.91
84051;BME280;74137;50.136;19.040;2024-03-23T05:04:08;97966.50;;;8.53;72.24
84051;BME280;74137;50.136;19.040;2024-03-23T05:06:35;97971.57;;;8.54;72.06
84051;BME280;74137;50.136;19.040;2024-03-23T05:09:02;97976.10;;;8.54;72.21
84051;BME280;74137;50.136;19.040;2024-03-23T05:11:33;97980.61;;;8.54;72.21
84051;BME280;74137;50.136;19.040;2024-03-23T05:14:00;97980.14;;;8.54;72.10
84051;BME280;74137;50.136;19.040;2024-03-23T05:16:27;97980.34;;;8.53;72.39
84051;BME280;74137;50.136;19.040;2024-03-23T05:18:54;97983.13;;;8.53;72.21
84051;BME280;74137;50.136;19.040;2024-03-23T05:21:21;97977.34;;;8.54;72.50
84051;BME280;74137;50.136;19.040;2024-03-23T05:23:48;97975.34;;;8.58;72.44
84051;BME280;74137;50.136;19.040;2024-03-23T05:26:15;97966.45;;;8.63;72.80
84051;BME280;74137;50.136;19.040;2024-03-23T05:28:42;97965.40;;;8.66;72.85
84051;BME280;74137;50.136;19.040;2024-03-23T05:31:09;97967.39;;;8.68;72.82
84051;BME280;74137;50.136;19.040;2024-03-23T05:33:36;97964.29;;;8.69;72.66
84051;BME280;74137;50.136;19.040;2024-03-23T05:36:06;97967.77;;;8.70;72.67
84051;BME280;74137;50.136;19.040;2024-03-23T05:38:35;97971.20;;;8.71;72.69
84051;BME280;74137;50.136;19.040;2024-03-23T05:41:02;97970.15;;;8.71;72.71
84051;BME280;74137;50.136;19.040;2024-03-23T05:43:29;97969.73;;;8.69;72.66
84051;BME280;74137;50.136;19.040;2024-03-23T05:45:57;97968.85;;;8.69;72.80
84051;BME280;74137;50.136;19.040;2024-03-23T05:48:26;97969.12;;;8.68;72.72
84051;BME280;74137;50.136;19.040;2024-03-23T05:50:53;97968.02;;;8.69;72.85
84051;BME280;74137;50.136;19.040;2024-03-23T05:53:20;97972.64;;;8.70;72.86
84051;BME280;74137;50.136;19.040;2024-03-23T05:55:47;97970.81;;;8.71;73.12
84051;BME280;74137;50.136;19.040;2024-03-23T05:58:15;97971.45;;;8.75;73.09
84051;BME280;74137;50.136;19.040;2024-03-23T06:00:43;97969.98;;;8.79;72.95
84051;BME280;74137;50.136;19.040;2024-03-23T06:03:11;97967.23;;;8.84;73.10
84051;BME280;74137;50.136;19.040;2024-03-23T06:05:38;97961.62;;;8.90;72.95
84051;BME280;74137;50.136;19.040;2024-03-23T06:09:51;97945.07;;;8.96;72.91
84051;BME280;74137;50.136;19.040;2024-03-23T06:13:29;97937.55;;;8.96;72.50
84051;BME280;74137;50.136;19.040;2024-03-23T06:25:47;97922.70;;;8.96;72.41
84051;BME280;74137;50.136;19.040;2024-03-23T06:33:23;97923.52;;;9.02;72.64
84051;BME280;74137;50.136;19.040;2024-03-23T06:37:03;97924.75;;;9.07;72.92
84051;BME280;74137;50.136;19.040;2024-03-23T06:45:44;97907.96;;;9.39;72.94
84051;BME280;74137;50.136;19.040;2024-03-23T08:36:54;97774.70;;;15.39;60.22
84051;BME280;74137;50.136;19.040;2024-03-23T08:39:51;97761.34;;;15.59;60.18
84051;BME280;74137;50.136;19.040;2024-03-23T09:04:44;97697.39;;;15.75;52.62
84051;BME280;74137;50.136;19.040;2024-03-23T09:07:12;97691.01;;;15.77;52.60
84051;BME280;74137;50.136;19.040;2024-03-23T09:09:40;97682.62;;;15.83;52.29
84051;BME280;74137;50.136;19.040;2024-03-23T09:12:08;97677.55;;;15.90;51.81
84051;BME280;74137;50.136;19.040;2024-03-23T09:14:37;97673.77;;;15.95;51.63
84051;BME280;74137;50.136;19.040;2024-03-23T09:17:05;97666.86;;;15.96;50.82
84051;BME280;74137;50.136;19.040;2024-03-23T09:19:33;97667.25;;;15.98;50.66
84051;BME280;74137;50.136;19.040;2024-03-23T09:22:02;97656.49;;;16.01;50.65
84051;BME280;74137;50.136;19.040;2024-03-23T09:24:30;97654.58;;;16.04;49.61
84051;BME280;74137;50.136;19.040;2024-03-23T09:27:00;97653.58;;;16.05;49.47
84051;BME280;74137;50.136;19.040;2024-03-23T09:29:28;97651.10;;;16.06;49.18
84051;BME280;74137;50.136;19.040;2024-03-23T09:31:56;97650.82;;;16.05;49.17
84051;BME280;74137;50.136;19.040;2024-03-23T09:34:24;97645.71;;;16.08;49.23
84051;BME280;74137;50.136;19.040;2024-03-23T09:36:52;97645.69;;;16.12;48.94
84051;BME280;74137;50.136;19.040;2024-03-23T09:39:24;97640.37;;;16.16;48.97
84051;BME280;74137;50.136;19.040;2024-03-23T09:41:56;97634.64;;;16.20;48.88
84051;BME280;74137;50.136;19.040;2024-03-23T09:44:25;97625.67;;;16.21;48.27
84051;BME280;74137;50.136;19.040;2024-03-23T09:46:54;97615.48;;;16.22;47.55
84051;BME280;74137;50.136;19.040;2024-03-23T09:49:23;97609.05;;;16.17;47.20
84051;BME280;74137;50.136;19.040;2024-03-23T09:51:51;97603.75;;;16.19;47.64
84051;BME280;74137;50.136;19.040;2024-03-23T09:54:19;97594.35;;;16.21;47.44
84051;BME280;74137;50.136;19.040;2024-03-23T09:56:50;97587.55;;;16.23;47.46
84051;BME280;74137;50.136;19.040;2024-03-23T09:59:18;97584.00;;;16.29;47.12
84051;BME280;74137;50.136;19.040;2024-03-23T10:01:46;97575.71;;;16.37;47.00
84051;BME280;74137;50.136;19.040;2024-03-23T10:04:40;97573.52;;;16.49;46.77
84051;BME280;74137;50.136;19.040;2024-03-23T10:07:18;97559.74;;;16.64;46.98
84051;BME280;74137;50.136;19.040;2024-03-23T10:09:47;97553.27;;;16.79;46.56
84051;BME280;74137;50.136;19.040;2024-03-23T10:12:17;97545.54;;;16.90;45.74
84051;BME280;74137;50.136;19.040;2024-03-23T10:14:46;97540.36;;;16.99;45.13
84051;BME280;74137;50.136;19.040;2024-03-23T10:17:22;97540.07;;;17.07;45.13
84051;BME280;74137;50.136;19.040;2024-03-23T10:19:56;97533.84;;;17.16;45.08
84051;BME280;74137;50.136;19.040;2024-03-23T10:22:25;97530.63;;;17.28;45.22
84051;BME280;74137;50.136;19.040;2024-03-23T10:25:07;97529.86;;;17.39;44.35
84051;BME280;74137;50.136;19.040;2024-03-23T10:27:36;97528.29;;;17.47;44.32
84051;BME280;74137;50.136;19.040;2024-03-23T10:30:11;97521.45;;;17.53;44.16
84051;BME280;74137;50.136;19.040;2024-03-23T10:32:40;97510.11;;;17.60;44.13
84051;BME280;74137;50.136;19.040;2024-03-23T10:37:43;97495.82;;;17.79;44.73
84051;BME280;74137;50.136;19.040;2024-03-23T10:40:12;97497.25;;;17.89;44.26
84051;BME280;74137;50.136;19.040;2024-03-23T10:42:40;97485.11;;;17.98;44.29
84051;BME280;74137;50.136;19.040;2024-03-23T10:45:08;97485.49;;;18.05;43.61
84051;BME280;74137;50.136;19.040;2024-03-23T10:47:37;97481.27;;;18.12;43.41
84051;BME280;74137;50.136;19.040;2024-03-23T10:50:06;97475.77;;;18.17;42.82
84051;BME280;74137;50.136;19.040;2024-03-23T10:52:34;97469.58;;;18.23;43.35
84051;BME280;74137;50.136;19.040;2024-03-23T10:55:05;97465.05;;;18.30;42.80
84051;BME280;74137;50.136;19.040;2024-03-23T10:57:42;97457.14;;;18.37;43.01
84051;BME280;74137;50.136;19.040;2024-03-23T11:00:37;97454.63;;;18.47;42.97
84051;BME280;74137;50.136;19.040;2024-03-23T11:03:30;97449.91;;;18.55;42.49
84051;BME280;74137;50.136;19.040;2024-03-23T11:06:06;97438.09;;;18.60;41.90
84051;BME280;74137;50.136;19.040;2024-03-23T11:08:39;97435.44;;;18.65;41.58
84051;BME280;74137;50.136;19.040;2024-03-23T11:13:48;97419.71;;;18.71;41.20
84051;BME280;74137;50.136;19.040;2024-03-23T11:16:23;97408.36;;;18.70;40.74
84051;BME280;74137;50.136;19.040;2024-03-23T11:18:54;97397.25;;;18.73;40.41
84051;BME280;74137;50.136;19.040;2024-03-23T11:21:51;97389.41;;;18.73;40.50
84051;BME280;74137;50.136;19.040;2024-03-23T11:24:23;97374.10;;;18.74;40.88
84051;BME280;74137;50.136;19.040;2024-03-23T11:26:53;97359.83;;;18.78;41.00
84051;BME280;74137;50.136;19.040;2024-03-23T11:29:21;97350.69;;;18.84;40.64
84051;BME280;74137;50.136;19.040;2024-03-23T11:31:52;97349.55;;;18.89;40.47
84051;BME280;74137;50.136;19.040;2024-03-23T11:34:34;97348.54;;;18.92;40.29
84051;BME280;74137;50.136;19.040;2024-03-23T11:37:07;97348.19;;;18.95;40.45
84051;BME280;74137;50.136;19.040;2024-03-23T11:39:36;97343.09;;;19.00;40.59
84051;BME280;74137;50.136;19.040;2024-03-23T11:42:05;97335.67;;;19.06;40.24
84051;BME280;74137;50.136;19.040;2024-03-23T11:44:55;97323.17;;;19.10;40.40
84051;BME280;74137;50.136;19.040;2024-03-23T11:50:55;97299.95;;;19.20;40.30
84051;BME280;74137;50.136;19.040;2024-03-23T11:53:25;97292.40;;;19.25;40.22
84051;BME280;74137;50.136;19.040;2024-03-23T11:56:21;97280.71;;;19.30;40.31
84051;BME280;74137;50.136;19.040;2024-03-23T11:59:36;97272.51;;;19.35;39.51
84051;BME280;74137;50.136;19.040;2024-03-23T12:02:08;97261.99;;;19.38;38.80
84051;BME280;74137;50.136;19.040;2024-03-23T12:04:41;97256.14;;;19.39;39.06
84051;BME280;74137;50.136;19.040;2024-03-23T12:07:14;97251.98;;;19.44;39.54
84051;BME280;74137;50.136;19.040;2024-03-23T12:09:43;97247.80;;;19.50;39.83
84051;BME280;74137;50.136;19.040;2024-03-23T12:12:18;97237.02;;;19.57;39.34
84051;BME280;74137;50.136;19.040;2024-03-23T12:15:04;97224.78;;;19.63;38.55
84051;BME280;74137;50.136;19.040;2024-03-23T12:17:34;97224.33;;;19.68;37.92
84051;BME280;74137;50.136;19.040;2024-03-23T12:20:05;97223.73;;;19.73;37.76
84051;BME280;74137;50.136;19.040;2024-03-23T12:22:33;97217.48;;;19.79;37.69
84051;BME280;74137;50.136;19.040;2024-03-23T12:25:03;97212.86;;;19.88;37.94
84051;BME280;74137;50.136;19.040;2024-03-23T12:27:31;97201.00;;;19.95;37.28
84051;BME280;74137;50.136;19.040;2024-03-23T12:30:02;97193.83;;;19.98;36.96
84051;BME280;74137;50.136;19.040;2024-03-23T12:32:32;97186.20;;;20.01;36.93
84051;BME280;74137;50.136;19.040;2024-03-23T12:35:00;97181.09;;;20.01;36.57
84051;BME280;74137;50.136;19.040;2024-03-23T12:37:28;97169.45;;;20.00;36.68
84051;BME280;74137;50.136;19.040;2024-03-23T12:39:57;97165.85;;;19.99;36.39
84051;BME280;74137;50.136;19.040;2024-03-23T12:42:25;97155.60;;;19.96;35.54
84051;BME280;74137;50.136;19.040;2024-03-23T12:44:58;97152.73;;;19.91;35.30
84051;BME280;74137;50.136;19.040;2024-03-23T12:47:29;97155.61;;;19.87;35.89
84051;BME280;74137;50.136;19.040;2024-03-23T12:49:58;97146.64;;;19.87;35.69
84051;BME280;74137;50.136;19.040;2024-03-23T12:52:26;97143.29;;;19.85;35.71
84051;BME280;74137;50.136;19.040;2024-03-23T12:54:56;97135.48;;;19.84;35.72
84051;BME280;74137;50.136;19.040;2024-03-23T12:57:25;97131.96;;;19.86;35.95
84051;BME280;74137;50.136;19.040;2024-03-23T12:59:53;97117.17;;;19.89;36.06
84051;BME280;74137;50.136;19.040;2024-03-23T13:02:21;97117.03;;;19.91;35.44
84051;BME280;74137;50.136;19.040;2024-03-23T13:04:50;97110.64;;;19.93;34.94
84051;BME280;74137;50.136;19.040;2024-03-23T13:07:21;97113.21;;;19.95;35.19
84051;BME280;74137;50.136;19.040;2024-03-23T13:09:50;97117.84;;;19.98;34.57
84051;BME280;74137;50.136;19.040;2024-03-23T13:12:19;97117.52;;;20.01;34.58
84051;BME280;74137;50.136;19.040;2024-03-23T13:14:48;97117.54;;;19.99;34.70
84051;BME280;74137;50.136;19.040;2024-03-23T13:17:16;97117.49;;;19.96;34.91
84051;BME280;74137;50.136;19.040;2024-03-23T13:19:44;97109.26;;;19.93;34.84
84051;BME280;74137;50.136;19.040;2024-03-23T13:22:12;97103.52;;;19.88;34.74
84051;BME280;74137;50.136;19.040;2024-03-23T13:24:41;97105.27;;;19.77;34.29
84051;BME280;74137;50.136;19.040;2024-03-23T13:27:09;97107.25;;;19.65;34.50
84051;BME280;74137;50.136;19.040;2024-03-23T13:29:38;97101.61;;;19.54;34.59
84051;BME280;74137;50.136;19.040;2024-03-23T13:32:07;97107.91;;;19.43;34.26
84051;BME280;74137;50.136;19.040;2024-03-23T13:34:35;97116.20;;;19.30;34.70
84051;BME280;74137;50.136;19.040;2024-03-23T13:37:04;97113.89;;;19.17;35.04
84051;BME280;74137;50.136;19.040;2024-03-23T13:39:32;97114.70;;;19.04;35.23
84051;BME280;74137;50.136;19.040;2024-03-23T13:42:01;97116.38;;;18.91;35.53
84051;BME280;74137;50.136;19.040;2024-03-23T13:44:29;97115.30;;;18.76;35.26
84051;BME280;74137;50.136;19.040;2024-03-23T13:46:57;97121.59;;;18.62;35.89
84051;BME280;74137;50.136;19.040;2024-03-23T13:49:29;97140.99;;;18.49;36.30
84051;BME280;74137;50.136;19.040;2024-03-23T13:52:01;97169.99;;;18.37;36.30
84051;BME280;74137;50.136;19.040;2024-03-23T13:54:29;97230.69;;;18.24;36.30
84051;BME280;74137;50.136;19.040;2024-03-23T13:56:56;97313.98;;;18.04;39.79
84051;BME280;74137;50.136;19.040;2024-03-23T13:59:24;97382.38;;;16.96;47.20
84051;BME280;74137;50.136;19.040;2024-03-23T14:01:52;97410.21;;;15.68;50.30
84051;BME280;74137;50.136;19.040;2024-03-23T14:04:23;97428.34;;;14.69;52.62
84051;BME280;74137;50.136;19.040;2024-03-23T14:06:52;97443.88;;;13.86;55.07
84051;BME280;74137;50.136;19.040;2024-03-23T14:09:21;97455.06;;;13.19;57.22
84051;BME280;74137;50.136;19.040;2024-03-23T14:11:51;97458.39;;;12.66;59.19
84051;BME280;74137;50.136;19.040;2024-03-23T14:14:19;97468.13;;;12.22;60.71
84051;BME280;74137;50.136;19.040;2024-03-23T14:16:50;97470.02;;;11.87;61.27
84051;BME280;74137;50.136;19.040;2024-03-23T14:19:18;97475.20;;;11.62;61.93
84051;BME280;74137;50.136;19.040;2024-03-23T14:21:47;97477.08;;;11.43;62.99
84051;BME280;74137;50.136;19.040;2024-03-23T14:24:15;97473.05;;;11.26;63.70
84051;BME280;74137;50.136;19.040;2024-03-23T14:26:43;97459.58;;;11.12;63.98
84051;BME280;74137;50.136;19.040;2024-03-23T14:29:12;97452.59;;;11.07;63.66
84051;BME280;74137;50.136;19.040;2024-03-23T14:31:40;97430.19;;;11.04;64.16
84051;BME280;74137;50.136;19.040;2024-03-23T14:34:08;97425.48;;;11.01;64.02
84051;BME280;74137;50.136;19.040;2024-03-23T14:36:37;97419.09;;;11.00;64.09
84051;BME280;74137;50.136;19.040;2024-03-23T14:39:06;97430.04;;;11.01;64.53
84051;BME280;74137;50.136;19.040;2024-03-23T14:41:34;97437.23;;;11.04;64.43
84051;BME280;74137;50.136;19.040;2024-03-23T14:44:03;97435.34;;;11.06;64.52
84051;BME280;74137;50.136;19.040;2024-03-23T14:46:32;97431.14;;;11.08;64.58
84051;BME280;74137;50.136;19.040;2024-03-23T14:49:02;97430.59;;;11.10;64.51
84051;BME280;74137;50.136;19.040;2024-03-23T14:51:30;97430.30;;;11.13;64.60
84051;BME280;74137;50.136;19.040;2024-03-23T14:54:00;97412.29;;;11.15;64.55
84051;BME280;74137;50.136;19.040;2024-03-23T14:56:29;97411.38;;;11.17;64.52
84051;BME280;74137;50.136;19.040;2024-03-23T14:58:57;97427.39;;;11.21;64.70
84051;BME280;74137;50.136;19.040;2024-03-23T15:01:26;97444.16;;;11.25;65.39
84051;BME280;74137;50.136;19.040;2024-03-23T15:03:55;97464.35;;;11.29;65.46
84051;BME280;74137;50.136;19.040;2024-03-23T15:06:24;97483.04;;;11.35;65.62
84051;BME280;74137;50.136;19.040;2024-03-23T15:08:52;97497.10;;;11.39;65.55
84051;BME280;74137;50.136;19.040;2024-03-23T15:11:20;97498.38;;;11.43;65.91
84051;BME280;74137;50.136;19.040;2024-03-23T15:13:50;97497.63;;;11.46;65.90
84051;BME280;74137;50.136;19.040;2024-03-23T15:16:18;97493.11;;;11.47;66.22
84051;BME280;74137;50.136;19.040;2024-03-23T15:18:51;97482.60;;;11.49;66.41
84051;BME280;74137;50.136;19.040;2024-03-23T15:21:22;97476.92;;;11.50;66.34
84051;BME280;74137;50.136;19.040;2024-03-23T15:23:50;97479.88;;;11.52;66.74
84051;BME280;74137;50.136;19.040;2024-03-23T15:26:18;97474.67;;;11.53;67.04
84051;BME280;74137;50.136;19.040;2024-03-23T15:28:50;97469.49;;;11.54;67.10
84051;BME280;74137;50.136;19.040;2024-03-23T15:31:24;97459.91;;;11.55;67.16
84051;BME280;74137;50.136;19.040;2024-03-23T15:33:53;97462.05;;;11.55;67.03
84051;BME280;74137;50.136;19.040;2024-03-23T15:36:21;97462.47;;;11.54;66.84
84051;BME280;74137;50.136;19.040;2024-03-23T15:38:49;97463.06;;;11.53;67.11
84051;BME280;74137;50.136;19.040;2024-03-23T15:41:17;97465.86;;;11.52;67.17
84051;BME280;74137;50.136;19.040;2024-03-23T15:43:45;97462.04;;;11.49;67.04
84051;BME280;74137;50.136;19.040;2024-03-23T15:46:13;97468.34;;;11.47;66.96
84051;BME280;74137;50.136;19.040;2024-03-23T15:48:42;97478.29;;;11.44;67.06
84051;BME280;74137;50.136;19.040;2024-03-23T15:51:14;97481.35;;;11.43;66.97
84051;BME280;74137;50.136;19.040;2024-03-23T15:53:42;97476.66;;;11.40;66.96
84051;BME280;74137;50.136;19.040;2024-03-23T15:56:11;97472.70;;;11.37;67.28
84051;BME280;74137;50.136;19.040;2024-03-23T15:58:41;97472.73;;;11.32;66.90
84051;BME280;74137;50.136;19.040;2024-03-23T16:01:09;97480.02;;;11.27;67.19
84051;BME280;74137;50.136;19.040;2024-03-23T16:03:38;97491.17;;;11.21;67.07
84051;BME280;74137;50.136;19.040;2024-03-23T16:06:07;97496.58;;;11.15;67.26
84051;BME280;74137;50.136;19.040;2024-03-23T16:08:36;97505.63;;;11.10;67.34
84051;BME280;74137;50.136;19.040;2024-03-23T16:11:05;97508.99;;;11.05;67.41
84051;BME280;74137;50.136;19.040;2024-03-23T16:13:34;97510.64;;;10.99;67.62
84051;BME280;74137;50.136;19.040;2024-03-23T16:16:06;97510.27;;;10.95;68.02
84051;BME280;74137;50.136;19.040;2024-03-23T16:18:36;97514.00;;;10.90;67.87
84051;BME280;74137;50.136;19.040;2024-03-23T16:21:04;97518.42;;;10.85;68.05
84051;BME280;74137;50.136;19.040;2024-03-23T16:23:33;97518.47;;;10.78;67.97
84051;BME280;74137;50.136;19.040;2024-03-23T16:26:02;97505.40;;;10.73;68.26
84051;BME280;74137;50.136;19.040;2024-03-23T16:28:35;97504.80;;;10.67;68.40
84051;BME280;74137;50.136;19.040;2024-03-23T16:33:33;97516.76;;;10.53;68.94
84051;BME280;74137;50.136;19.040;2024-03-23T16:36:09;97513.90;;;10.46;68.93
84051;BME280;74137;50.136;19.040;2024-03-23T16:38:38;97527.70;;;10.40;69.23
84051;BME280;74137;50.136;19.040;2024-03-23T16:41:09;97538.48;;;10.35;69.54
84051;BME280;74137;50.136;19.040;2024-03-23T16:43:41;97558.36;;;10.29;69.88
84051;BME280;74137;50.136;19.040;2024-03-23T16:46:11;97599.73;;;10.22;70.30
84051;BME280;74137;50.136;19.040;2024-03-23T16:48:39;97643.09;;;10.17;70.78